Alt Villa del Rey, Puerto Rico
Current Conditions -  °F | °C
As of 8:56 AM on Monday 24 Nov 2014 (Local Time) from TJSJ Reporting Station
Scattered Clouds Scattered Clouds  
Wind Chill: 28°   Ceiling: Unl
Heat Index: 32°   Visibility: 10mi
Dew Point: 23°   Wind: 17mph
Humidity: 74%   Direction: 70°ENE
Pressure: 30.08"   Gusts: 24mph
Location:  18.2351°N, 66.0374°W
Report Text: TJSJ 241256Z 07015G21KT 10SM FEW032 SCT048 SCT060 28/23 A3008 RMK AO2 SLP183 SHRA DSNT SE SW T02830233
Loading
Personal Weather Stations






























Interactive Weather Map New forecast layout! Learn more

10-Day Weather Forecast

Advertisements
Track Severe Weather on mobile